createdAt,value
2023-08-08T00:02:45.070Z,82.1
2023-08-08T00:05:45.070Z,82.3
2023-08-08T00:08:45.075Z,82.4
2023-08-08T00:11:45.076Z,82.4
2023-08-08T00:14:45.087Z,82.5
2023-08-08T00:17:45.122Z,82.5
2023-08-08T00:20:45.088Z,82.5
2023-08-08T00:23:45.098Z,82.7
2023-08-08T00:26:45.119Z,82.9
2023-08-08T00:29:45.111Z,83.1
2023-08-08T00:32:45.149Z,83.2
2023-08-08T00:35:45.124Z,83.2
2023-08-08T00:38:45.111Z,83.1
2023-08-08T00:41:45.123Z,83.1
2023-08-08T00:44:45.135Z,83.2
2023-08-08T00:47:45.169Z,83.2
2023-08-08T00:50:45.125Z,83.3
2023-08-08T00:53:45.144Z,83.4
2023-08-08T00:56:45.166Z,83.5
2023-08-08T00:59:45.156Z,83.6
2023-08-08T01:02:45.217Z,83.7
2023-08-08T01:05:45.174Z,83.8
2023-08-08T01:08:45.153Z,83.8
2023-08-08T01:11:45.164Z,84.2
2023-08-08T01:14:45.193Z,84.5
2023-08-08T01:17:45.179Z,84.5
2023-08-08T01:20:45.173Z,85
2023-08-08T01:23:45.176Z,84.9
2023-08-08T01:26:45.179Z,85.3
2023-08-08T01:29:45.186Z,85.5
2023-08-08T01:32:45.222Z,85.6
2023-08-08T01:35:45.194Z,85.8
2023-08-08T01:38:45.194Z,85.8
2023-08-08T01:41:45.195Z,85.9
2023-08-08T01:44:45.223Z,86
2023-08-08T01:47:45.209Z,86.2
2023-08-08T01:50:45.210Z,86.1
2023-08-08T01:53:45.205Z,86.3
2023-08-08T01:56:45.222Z,86.5
2023-08-08T01:59:45.234Z,86.5
2023-08-08T02:02:45.266Z,86.7
2023-08-08T02:05:45.253Z,86.7
2023-08-08T02:08:45.236Z,86.8
2023-08-08T02:11:45.253Z,86.9
2023-08-08T02:14:45.268Z,86.8
2023-08-08T02:17:45.266Z,86.7
2023-08-08T02:20:45.260Z,87
2023-08-08T02:23:45.262Z,87
2023-08-08T02:26:45.290Z,86.9
2023-08-08T02:29:45.281Z,87.4
2023-08-08T02:32:45.315Z,87.3
2023-08-08T02:35:45.295Z,87.5
2023-08-08T02:38:45.312Z,87.8
2023-08-08T02:41:45.307Z,87.9
2023-08-08T02:44:45.312Z,87.8
2023-08-08T02:47:45.337Z,87.9
2023-08-08T02:50:45.327Z,87.9
2023-08-08T02:53:45.314Z,87.9
2023-08-08T02:56:45.329Z,88.3
2023-08-08T02:59:45.333Z,88.2
2023-08-08T03:02:45.351Z,88.2
2023-08-08T03:05:45.336Z,88.3
2023-08-08T03:08:45.339Z,88.3
2023-08-08T03:11:45.346Z,88.5
2023-08-08T03:14:45.360Z,88.7
2023-08-08T03:17:45.371Z,88.5
2023-08-08T03:20:45.344Z,88.6
2023-08-08T03:23:45.360Z,88.6
2023-08-08T03:26:45.353Z,88.7
2023-08-08T03:29:45.380Z,88.7
2023-08-08T03:32:45.397Z,88.7
2023-08-08T03:35:45.378Z,88.7
2023-08-08T03:38:45.400Z,88.8
2023-08-08T03:41:45.385Z,88.7
2023-08-08T03:44:45.414Z,88.8
2023-08-08T03:47:45.520Z,88.8
2023-08-08T03:50:45.429Z,88.7
2023-08-08T03:53:45.417Z,88.7
2023-08-08T03:56:45.422Z,88.6
2023-08-08T03:59:45.444Z,88.4
2023-08-08T04:02:45.440Z,88.3
2023-08-08T04:05:45.426Z,88.2
2023-08-08T04:08:45.435Z,88.1
2023-08-08T04:11:45.433Z,88
2023-08-08T04:14:45.453Z,87.9
2023-08-08T04:17:45.493Z,87.8
2023-08-08T04:20:45.456Z,87.5
2023-08-08T04:23:45.452Z,87.4
2023-08-08T04:26:45.457Z,87.2
2023-08-08T04:29:45.468Z,87
2023-08-08T04:32:45.462Z,86.8
2023-08-08T04:35:45.468Z,86.5
2023-08-08T04:38:45.472Z,86.4
2023-08-08T04:41:45.482Z,86.3
2023-08-08T04:44:45.597Z,86.1
2023-08-08T04:47:45.539Z,86.2
2023-08-08T04:50:45.487Z,86.1
2023-08-08T04:53:45.496Z,86.1
2023-08-08T04:56:45.497Z,86
2023-08-08T04:59:45.525Z,85.9
2023-08-08T05:02:45.542Z,85.8
2023-08-08T05:05:45.516Z,85.8
2023-08-08T05:08:45.535Z,85.6
2023-08-08T05:11:45.526Z,85.3
2023-08-08T05:14:45.532Z,85.2
2023-08-08T05:17:45.537Z,85
2023-08-08T05:20:45.525Z,84.9
2023-08-08T05:23:45.539Z,84.5
2023-08-08T05:26:45.537Z,84.3
2023-08-08T05:29:45.560Z,84
2023-08-08T05:32:45.589Z,83.4
2023-08-08T05:35:45.558Z,83.4
2023-08-08T05:38:45.552Z,83.3
2023-08-08T05:41:45.551Z,82.7
2023-08-08T05:44:45.581Z,82.6
2023-08-08T05:47:45.722Z,82.1
2023-08-08T05:50:45.584Z,81.7
2023-08-08T05:53:45.598Z,81
2023-08-08T05:56:45.603Z,79.8
2023-08-08T05:59:45.592Z,78.9
2023-08-08T06:02:45.612Z,78.3
2023-08-08T06:05:45.598Z,78.5
2023-08-08T06:08:45.597Z,78.6
2023-08-08T06:11:45.607Z,79.2
2023-08-08T06:14:45.612Z,79.3
2023-08-08T06:17:45.658Z,79.4
2023-08-08T06:20:45.676Z,79.2
2023-08-08T06:23:45.617Z,79.2
2023-08-08T06:26:45.627Z,79.1
2023-08-08T06:29:45.640Z,78.5
2023-08-08T06:32:45.650Z,77.9
2023-08-08T06:35:45.649Z,77.3
2023-08-08T06:38:45.648Z,74.8
2023-08-08T06:41:45.644Z,73.8
2023-08-08T06:44:45.658Z,73.4
2023-08-08T06:47:45.680Z,72.9
2023-08-08T06:50:45.656Z,72.3
2023-08-08T06:53:45.653Z,71.6
2023-08-08T06:56:45.660Z,71.8
2023-08-08T06:59:45.682Z,71.2
2023-08-08T07:02:45.702Z,71.9
2023-08-08T07:05:45.676Z,71.8
2023-08-08T07:08:45.676Z,71.4
2023-08-08T07:11:45.697Z,72
2023-08-08T07:14:45.710Z,71.7
2023-08-08T07:17:45.696Z,71.5
2023-08-08T07:20:45.721Z,71.3
2023-08-08T07:23:45.699Z,71.4
2023-08-08T07:26:45.706Z,71.8
2023-08-08T07:29:45.722Z,71.4
2023-08-08T07:32:45.754Z,71.1
2023-08-08T07:35:45.709Z,70.9
2023-08-08T07:38:45.712Z,70.5
2023-08-08T07:41:45.726Z,71.3
2023-08-08T07:44:45.731Z,72.7
2023-08-08T07:47:45.758Z,73.2
2023-08-08T07:50:45.725Z,73.8
2023-08-08T07:53:47.321Z,74
2023-08-08T07:56:45.727Z,73.8
2023-08-08T07:59:45.748Z,73
2023-08-08T08:02:45.822Z,72.2
2023-08-08T08:05:45.745Z,70.1
2023-08-08T08:08:45.739Z,68.2
2023-08-08T08:11:45.746Z,66.7
2023-08-08T08:14:45.781Z,64.7
2023-08-08T08:17:45.780Z,62.3
2023-08-08T08:20:45.775Z,60.2
2023-08-08T08:23:45.794Z,59.3
2023-08-08T08:26:45.796Z,60.4
2023-08-08T08:29:45.826Z,61.9
2023-08-08T08:32:45.877Z,60.6
2023-08-08T08:35:45.825Z,58
2023-08-08T08:38:45.847Z,56.8
2023-08-08T08:41:45.845Z,56.9
2023-08-08T08:44:45.879Z,57
2023-08-08T08:47:45.876Z,57.3
2023-08-08T08:50:46.018Z,59.3
2023-08-08T08:53:45.869Z,59.4
2023-08-08T08:56:45.884Z,60.3
2023-08-08T08:59:45.892Z,61.6
2023-08-08T09:02:45.903Z,62.8
2023-08-08T09:05:45.904Z,62.6
2023-08-08T09:08:45.896Z,62.4
2023-08-08T09:11:45.887Z,64.2
2023-08-08T09:14:45.921Z,65.4
2023-08-08T09:17:48.373Z,67.6
2023-08-08T09:20:45.913Z,69.6
2023-08-08T09:23:46.485Z,71.4
2023-08-08T09:26:45.934Z,69.7
2023-08-08T09:29:45.966Z,68.7
2023-08-08T09:32:45.986Z,66.5
2023-08-08T09:35:45.957Z,63.6
2023-08-08T09:38:45.952Z,62.6
2023-08-08T09:41:45.974Z,62
2023-08-08T09:44:45.975Z,60.1
2023-08-08T09:47:45.990Z,58.5
2023-08-08T09:50:45.968Z,57.1
2023-08-08T09:53:45.985Z,57.8
2023-08-08T09:56:45.982Z,57.3
2023-08-08T09:59:45.988Z,55.6
2023-08-08T10:02:46.063Z,55.8
2023-08-08T10:05:45.988Z,56.1
2023-08-08T10:08:46.000Z,56.1
2023-08-08T10:11:46.008Z,55.6
2023-08-08T10:14:46.026Z,56.1
2023-08-08T10:17:46.073Z,55.4
2023-08-08T10:20:46.009Z,54.9
2023-08-08T10:23:46.024Z,55.7
2023-08-08T10:26:46.026Z,56.6
2023-08-08T10:29:46.038Z,54.7
2023-08-08T10:32:46.074Z,54.8
2023-08-08T10:35:46.041Z,55.9
2023-08-08T10:38:46.048Z,58.7
2023-08-08T10:41:46.059Z,61
2023-08-08T10:44:46.057Z,62.4
2023-08-08T10:47:46.317Z,65.8
2023-08-08T10:50:46.065Z,70.8
2023-08-08T10:53:46.074Z,69.4
2023-08-08T10:56:46.083Z,70.7
2023-08-08T10:59:46.092Z,71.8
2023-08-08T11:02:46.163Z,72.5
2023-08-08T11:05:46.204Z,71.4
2023-08-08T11:08:46.101Z,70.3
2023-08-08T11:11:46.123Z,70.5
2023-08-08T11:14:46.098Z,70.2
2023-08-08T11:17:46.116Z,69
2023-08-08T11:20:46.113Z,68.1
2023-08-08T11:23:46.114Z,65.2
2023-08-08T11:26:46.137Z,64.9
2023-08-08T11:29:46.159Z,63.8
2023-08-08T11:35:46.127Z,63.8
2023-08-08T11:38:46.133Z,63.4
2023-08-08T11:41:46.132Z,63.3
2023-08-08T11:44:46.153Z,63
2023-08-08T11:47:46.166Z,62.1
2023-08-08T11:50:46.148Z,61
2023-08-08T11:53:46.160Z,61.2
2023-08-08T11:56:46.184Z,60.8
2023-08-08T11:59:46.171Z,60.3
2023-08-08T12:02:46.215Z,60.7
2023-08-08T12:05:46.175Z,61.3
2023-08-08T12:08:46.191Z,61.3
2023-08-08T12:11:46.264Z,60.9
2023-08-08T12:14:51.399Z,59.3
2023-08-08T12:17:46.208Z,59.4
2023-08-08T12:20:46.197Z,58.9
2023-08-08T12:23:46.216Z,56.7
2023-08-08T12:26:46.212Z,55.7
2023-08-08T12:29:46.207Z,56
2023-08-08T12:32:46.254Z,56.2
2023-08-08T12:35:46.203Z,53.5
2023-08-08T12:38:46.215Z,56.6
2023-08-08T12:41:46.216Z,57.2
2023-08-08T12:44:46.241Z,54.3
2023-08-08T12:47:46.280Z,53.9
2023-08-08T12:50:46.252Z,55
2023-08-08T12:53:46.251Z,60
2023-08-08T12:56:46.260Z,66.8
2023-08-08T12:59:46.252Z,70
2023-08-08T13:02:46.296Z,69.3
2023-08-08T13:05:46.262Z,66.4
2023-08-08T13:08:46.281Z,64.8
2023-08-08T13:11:46.275Z,59.1
2023-08-08T13:14:46.275Z,57.2
2023-08-08T13:17:46.302Z,57.5
2023-08-08T13:20:46.275Z,56.9
2023-08-08T13:23:46.294Z,57.7
2023-08-08T13:26:46.290Z,57.7
2023-08-08T13:29:46.292Z,57.6
2023-08-08T13:32:46.349Z,57.8
2023-08-08T13:35:46.314Z,56.2
2023-08-08T13:38:46.321Z,54.3
2023-08-08T13:41:46.317Z,56.6
2023-08-08T13:44:46.318Z,66.7
2023-08-08T13:47:46.370Z,71.1
2023-08-08T13:50:46.327Z,71.1
2023-08-08T13:53:46.351Z,72.7
2023-08-08T13:56:46.329Z,72.7
2023-08-08T13:59:46.348Z,74.7
2023-08-08T14:02:46.405Z,74.1
2023-08-08T14:05:46.357Z,79
2023-08-08T14:08:46.370Z,83.8
2023-08-08T14:11:46.373Z,87
2023-08-08T14:14:46.369Z,89
2023-08-08T14:17:46.528Z,90.1
2023-08-08T14:20:46.379Z,89.3
2023-08-08T14:23:46.394Z,89
2023-08-08T14:26:46.387Z,87.2
2023-08-08T14:29:46.392Z,87.8
2023-08-08T14:32:46.433Z,87.9
2023-08-08T14:35:46.400Z,88.1
2023-08-08T14:38:46.433Z,86.9
2023-08-08T14:41:46.464Z,87.4
2023-08-08T14:44:46.401Z,86.9
2023-08-08T14:47:46.412Z,86.3
2023-08-08T14:50:46.421Z,85.4
2023-08-08T14:53:46.426Z,83.8
2023-08-08T14:56:46.423Z,83
2023-08-08T14:59:46.431Z,82.9
2023-08-08T15:02:46.473Z,83
2023-08-08T15:05:46.438Z,83.7
2023-08-08T15:08:46.432Z,84.2
2023-08-08T15:11:46.447Z,85.6
2023-08-08T15:14:46.452Z,84.9
2023-08-08T15:17:46.461Z,84.9
2023-08-08T15:20:46.453Z,84.7
2023-08-08T15:23:46.460Z,83.7
2023-08-08T15:26:46.482Z,83.3
2023-08-08T15:29:46.468Z,83.1
2023-08-08T15:32:46.511Z,82.6
2023-08-08T15:35:46.475Z,82.5
2023-08-08T15:38:46.477Z,82.2
2023-08-08T15:41:46.496Z,81.2
2023-08-08T15:44:46.503Z,80.6
2023-08-08T15:47:46.531Z,80.6
2023-08-08T15:50:46.505Z,81.7
2023-08-08T15:53:46.518Z,82.5
2023-08-08T15:56:46.522Z,81.6
2023-08-08T15:59:46.514Z,80.4
2023-08-08T16:02:46.593Z,79.7
2023-08-08T16:05:46.532Z,79.5
2023-08-08T16:08:46.529Z,77.8
2023-08-08T16:11:46.534Z,77.2
2023-08-08T16:14:46.541Z,76.2
2023-08-08T16:17:46.561Z,75.1
2023-08-08T16:20:46.556Z,73.7
2023-08-08T16:23:46.552Z,73.6
2023-08-08T16:26:46.563Z,73.7
2023-08-08T16:29:46.565Z,73.2
2023-08-08T16:32:46.623Z,71.7
2023-08-08T16:35:46.569Z,72
2023-08-08T16:38:46.589Z,71.7
2023-08-08T16:41:46.620Z,70.6
2023-08-08T16:44:46.590Z,69.8
2023-08-08T16:47:46.596Z,71.1
2023-08-08T16:50:46.596Z,70.8
2023-08-08T16:53:46.599Z,70.1
2023-08-08T16:56:46.614Z,70
2023-08-08T16:59:46.616Z,69.6
2023-08-08T17:02:46.681Z,69
2023-08-08T17:05:46.617Z,68.5
2023-08-08T17:08:46.646Z,67.8
2023-08-08T17:11:46.669Z,67.8
2023-08-08T17:14:46.624Z,68
2023-08-08T17:17:46.673Z,68.5
2023-08-08T17:20:46.661Z,68.5
2023-08-08T17:23:46.765Z,68.6
2023-08-08T17:26:46.686Z,68.7
2023-08-08T17:29:46.719Z,68.8
2023-08-08T17:32:46.789Z,69.1
2023-08-08T17:35:46.709Z,69
2023-08-08T17:38:46.683Z,69.1
2023-08-08T17:41:46.721Z,68.8
2023-08-08T17:44:47.849Z,68.9
2023-08-08T17:47:46.780Z,68
2023-08-08T17:50:46.754Z,68.3
2023-08-08T17:53:46.772Z,67.9
2023-08-08T17:56:46.765Z,67.8
2023-08-08T17:59:46.851Z,68
2023-08-08T18:02:46.801Z,67.8
2023-08-08T18:05:46.690Z,68.1
2023-08-08T18:08:46.716Z,67.8
2023-08-08T18:11:46.733Z,67.9
2023-08-08T18:14:46.712Z,68.1
2023-08-08T18:17:46.734Z,68.3
2023-08-08T18:20:46.722Z,68.8
2023-08-08T18:23:46.713Z,69.5
2023-08-08T18:26:46.725Z,69.8
2023-08-08T18:29:46.734Z,70.2
2023-08-08T18:32:46.769Z,70.6
2023-08-08T18:35:46.738Z,70.6
2023-08-08T18:38:46.746Z,71
2023-08-08T18:41:46.750Z,71.4
2023-08-08T18:44:46.753Z,71.2
2023-08-08T18:47:46.786Z,71.4
2023-08-08T18:50:46.789Z,71.6
2023-08-08T18:53:46.772Z,71.7
2023-08-08T18:56:46.777Z,71.9
2023-08-08T18:59:46.778Z,72.1
2023-08-08T19:02:46.830Z,72.3
2023-08-08T19:05:46.791Z,72.6
2023-08-08T19:08:46.804Z,73.1
2023-08-08T19:11:46.799Z,73.9
2023-08-08T19:14:46.793Z,74.5
2023-08-08T19:17:55.767Z,74.7
2023-08-08T19:20:46.806Z,75.1
2023-08-08T19:23:46.811Z,75.4
2023-08-08T19:26:46.824Z,75.6
2023-08-08T19:29:46.823Z,75.7
2023-08-08T19:32:46.842Z,75.7
2023-08-08T19:35:46.826Z,76
2023-08-08T19:38:46.841Z,76
2023-08-08T19:41:46.854Z,76.2
2023-08-08T19:44:46.848Z,76.9
2023-08-08T19:47:46.900Z,77.6
2023-08-08T19:50:46.860Z,77.9
2023-08-08T19:53:46.874Z,78.2
2023-08-08T19:56:46.866Z,78.5
2023-08-08T19:59:46.865Z,78.7
2023-08-08T20:02:47.426Z,79
2023-08-08T20:05:46.878Z,79.6
2023-08-08T20:08:46.892Z,79.9
2023-08-08T20:11:46.895Z,80.3
2023-08-08T20:14:46.887Z,80.5
2023-08-08T20:17:46.910Z,81.2
2023-08-08T20:20:46.895Z,81.6
2023-08-08T20:23:46.895Z,81.6
2023-08-08T20:26:46.901Z,82.4
2023-08-08T20:29:46.908Z,82.7
2023-08-08T20:32:47.251Z,83.3
2023-08-08T20:35:46.919Z,83.6
2023-08-08T20:38:46.928Z,84.5
2023-08-08T20:41:46.920Z,84.4
2023-08-08T20:44:46.933Z,85.2
2023-08-08T20:47:46.954Z,85.2
2023-08-08T20:50:46.940Z,85.1
2023-08-08T20:53:46.950Z,85.4
2023-08-08T20:56:46.957Z,85.6
2023-08-08T20:59:46.956Z,86
2023-08-08T21:02:48.011Z,86.3
2023-08-08T21:05:46.973Z,86.6
2023-08-08T21:08:47.133Z,86.8
2023-08-08T21:11:46.968Z,87.2
2023-08-08T21:14:46.968Z,87.4
2023-08-08T21:17:47.058Z,87.5
2023-08-08T21:20:46.989Z,87.5
2023-08-08T21:23:46.994Z,87.8
2023-08-08T21:26:46.984Z,87.9
2023-08-08T21:29:47.000Z,88.4
2023-08-08T21:32:47.005Z,88.1
2023-08-08T21:35:47.001Z,88.1
2023-08-08T21:38:47.002Z,88
2023-08-08T21:41:47.003Z,88
2023-08-08T21:44:47.012Z,87.9
2023-08-08T21:47:47.020Z,87.7
2023-08-08T21:50:47.017Z,87.5
2023-08-08T21:53:47.024Z,87.4
2023-08-08T21:56:47.033Z,87.2
2023-08-08T21:59:47.024Z,87.1
2023-08-08T22:02:47.040Z,86.9
2023-08-08T22:05:47.038Z,86.9
2023-08-08T22:08:47.046Z,86.8
2023-08-08T22:11:47.041Z,86.9
2023-08-08T22:14:47.388Z,87
2023-08-08T22:17:53.568Z,86.9
2023-08-08T22:20:47.052Z,86.8
2023-08-08T22:23:47.048Z,86.6
2023-08-08T22:26:47.050Z,86.5
2023-08-08T22:29:47.055Z,86.4
2023-08-08T22:32:47.106Z,86.4
2023-08-08T22:35:47.061Z,86.2
2023-08-08T22:38:47.067Z,86.1
2023-08-08T22:41:47.103Z,86
2023-08-08T22:44:47.119Z,85.7
2023-08-08T22:47:47.128Z,85.7
2023-08-08T22:50:47.131Z,85.6
2023-08-08T22:53:47.147Z,85.6
2023-08-08T22:56:47.140Z,85.7
2023-08-08T22:59:47.158Z,85.7
2023-08-08T23:02:47.254Z,85.3
2023-08-08T23:05:47.162Z,85.2
2023-08-08T23:08:47.170Z,85.2
2023-08-08T23:11:47.162Z,85.1
2023-08-08T23:14:47.180Z,85.2
2023-08-08T23:17:47.224Z,85.4
2023-08-08T23:20:47.192Z,85.5
2023-08-08T23:23:47.209Z,85.7
2023-08-08T23:26:47.202Z,85.7
2023-08-08T23:29:47.209Z,85.8
2023-08-08T23:32:53.804Z,85.8
2023-08-08T23:35:47.220Z,85.8
2023-08-08T23:38:47.230Z,85.7
2023-08-08T23:41:47.231Z,85.7
2023-08-08T23:44:47.246Z,85.9
2023-08-08T23:47:47.292Z,86
2023-08-08T23:50:47.257Z,86
2023-08-08T23:53:47.259Z,85.9
2023-08-08T23:56:47.279Z,85.9
2023-08-08T23:59:47.281Z,85.8
